createdAt,value
2018-08-04T00:01:28.396Z,20.03
2018-08-04T00:03:55.316Z,20.03
2018-08-04T00:06:22.255Z,20.03
2018-08-04T00:08:49.281Z,20.01
2018-08-04T00:11:16.267Z,19.99
2018-08-04T00:13:43.197Z,19.97
2018-08-04T00:16:10.124Z,19.94
2018-08-04T00:18:37.040Z,20.00
2018-08-04T00:21:03.989Z,20.09
2018-08-04T00:23:30.927Z,19.94
2018-08-04T00:25:57.867Z,20.01
2018-08-04T00:28:24.778Z,19.98
2018-08-04T00:30:51.709Z,19.82
2018-08-04T00:33:18.616Z,19.66
2018-08-04T00:35:45.543Z,19.54
2018-08-04T00:38:12.453Z,19.59
2018-08-04T00:40:39.400Z,19.66
2018-08-04T00:43:06.347Z,19.66
2018-08-04T00:45:33.276Z,19.71
2018-08-04T00:48:00.194Z,19.73
2018-08-04T00:50:27.126Z,20.00
2018-08-04T00:52:54.046Z,19.85
2018-08-04T00:55:21.015Z,19.92
2018-08-04T00:57:47.964Z,20.02
2018-08-04T01:00:14.884Z,19.98
2018-08-04T01:02:41.793Z,20.01
2018-08-04T01:05:08.736Z,19.98
2018-08-04T01:07:35.649Z,19.91
2018-08-04T01:10:04.156Z,19.78
2018-08-04T01:12:31.212Z,19.63
2018-08-04T01:14:58.810Z,19.69
2018-08-04T01:17:25.704Z,19.69
2018-08-04T01:19:52.647Z,19.46
2018-08-04T01:22:19.606Z,19.49
2018-08-04T01:24:46.567Z,19.50
2018-08-04T01:27:20.244Z,19.67
2018-08-04T01:29:47.196Z,19.63
2018-08-04T01:32:14.101Z,19.76
2018-08-04T01:34:41.031Z,19.45
2018-08-04T01:37:07.971Z,19.49
2018-08-04T01:39:34.880Z,19.61
2018-08-04T01:42:01.855Z,19.54
2018-08-04T01:44:28.753Z,19.47
2018-08-04T01:46:55.717Z,19.39
2018-08-04T01:49:22.652Z,19.48
2018-08-04T01:51:49.612Z,19.47
2018-08-04T01:54:16.532Z,19.34
2018-08-04T01:56:43.452Z,19.35
2018-08-04T01:59:10.394Z,19.48
2018-08-04T02:01:37.300Z,19.38
2018-08-04T02:04:04.316Z,19.39
2018-08-04T02:06:31.504Z,19.29
2018-08-04T02:08:58.425Z,19.31
2018-08-04T02:11:25.362Z,19.36
2018-08-04T02:13:52.293Z,19.32
2018-08-04T02:16:19.216Z,19.30
2018-08-04T02:18:46.112Z,19.28
2018-08-04T02:21:13.025Z,19.21
2018-08-04T02:23:39.984Z,19.19
2018-08-04T02:26:06.919Z,19.19
2018-08-04T02:28:33.840Z,19.09
2018-08-04T02:31:00.777Z,19.06
2018-08-04T02:33:27.735Z,19.01
2018-08-04T02:35:54.661Z,19.04
2018-08-04T02:38:21.598Z,19.06
2018-08-04T02:40:48.508Z,19.08
2018-08-04T02:43:15.424Z,19.00
2018-08-04T02:45:42.377Z,19.05
2018-08-04T02:48:09.301Z,19.07
2018-08-04T02:50:36.249Z,19.08
2018-08-04T02:53:03.172Z,19.07
2018-08-04T02:55:30.093Z,19.01
2018-08-04T02:57:57.040Z,19.02
2018-08-04T03:00:23.975Z,18.88
2018-08-04T03:02:50.905Z,19.08
2018-08-04T03:05:17.820Z,18.91
2018-08-04T03:07:44.762Z,19.03
2018-08-04T03:10:11.685Z,18.90
2018-08-04T03:12:38.627Z,18.91
2018-08-04T03:15:05.653Z,18.96
2018-08-04T03:17:32.593Z,18.96
2018-08-04T03:19:59.495Z,19.07
2018-08-04T03:22:26.441Z,19.13
2018-08-04T03:24:53.379Z,19.46
2018-08-04T03:27:20.348Z,19.62
2018-08-04T03:29:47.273Z,19.38
2018-08-04T03:32:14.224Z,19.56
2018-08-04T03:34:41.141Z,19.35
2018-08-04T03:37:08.060Z,19.34
2018-08-04T03:39:34.979Z,19.45
2018-08-04T03:42:01.919Z,19.49
2018-08-04T03:44:28.856Z,19.37
2018-08-04T03:46:55.817Z,19.12
2018-08-04T03:49:22.813Z,19.11
2018-08-04T03:51:49.748Z,19.08
2018-08-04T03:54:16.660Z,19.07
2018-08-04T03:56:43.572Z,19.14
2018-08-04T03:59:10.487Z,19.31
2018-08-04T04:01:37.395Z,19.15
2018-08-04T04:04:04.349Z,19.20
2018-08-04T04:06:31.317Z,19.39
2018-08-04T04:08:58.200Z,19.41
2018-08-04T04:11:25.115Z,19.35
2018-08-04T04:13:52.172Z,19.49
2018-08-04T04:16:19.080Z,19.28
2018-08-04T04:18:46.002Z,19.25
2018-08-04T04:21:12.950Z,19.24
2018-08-04T04:23:39.890Z,19.34
2018-08-04T04:26:06.772Z,19.46
2018-08-04T04:28:33.682Z,19.51
2018-08-04T04:31:00.653Z,19.40
2018-08-04T04:33:27.556Z,19.29
2018-08-04T04:35:54.519Z,19.52
2018-08-04T04:38:21.407Z,19.45
2018-08-04T04:40:48.302Z,19.45
2018-08-04T04:43:15.199Z,19.74
2018-08-04T04:45:42.116Z,19.80
2018-08-04T04:48:09.053Z,19.68
2018-08-04T04:50:35.956Z,20.02
2018-08-04T04:53:02.872Z,20.34
2018-08-04T04:55:29.848Z,20.48
2018-08-04T04:57:56.676Z,20.52
2018-08-04T05:00:23.580Z,19.97
2018-08-04T05:02:50.482Z,19.88
2018-08-04T05:05:17.390Z,19.99
2018-08-04T05:07:44.289Z,20.02
2018-08-04T05:10:11.192Z,20.10
2018-08-04T05:12:38.145Z,20.13
2018-08-04T05:15:05.568Z,20.21
2018-08-04T05:17:32.507Z,20.19
2018-08-04T05:19:59.460Z,20.27
2018-08-04T05:22:26.400Z,20.36
2018-08-04T05:24:53.389Z,20.60
2018-08-04T05:27:20.305Z,20.44
2018-08-04T05:29:47.235Z,20.61
2018-08-04T05:32:14.161Z,20.61
2018-08-04T05:34:41.090Z,20.65
2018-08-04T05:37:08.000Z,20.71
2018-08-04T05:39:34.932Z,20.66
2018-08-04T05:42:01.861Z,20.54
2018-08-04T05:44:29.333Z,20.37
2018-08-04T05:46:56.272Z,20.65
2018-08-04T05:49:23.216Z,20.54
2018-08-04T05:51:50.143Z,20.50
2018-08-04T05:54:17.340Z,20.54
2018-08-04T05:56:44.246Z,20.53
2018-08-04T05:59:11.156Z,20.46
2018-08-04T06:01:38.064Z,20.43
2018-08-04T06:04:05.071Z,20.39
2018-08-04T06:06:31.984Z,20.35
2018-08-04T06:08:58.915Z,20.37
2018-08-04T06:11:25.817Z,20.23
2018-08-04T06:13:52.771Z,20.34
2018-08-04T06:16:19.652Z,20.26
2018-08-04T06:18:46.562Z,20.26
2018-08-04T06:21:13.444Z,20.20
2018-08-04T06:23:40.349Z,20.11
2018-08-04T06:26:07.333Z,20.19
2018-08-04T06:28:34.281Z,20.41
2018-08-04T06:31:01.188Z,20.58
2018-08-04T06:33:28.096Z,20.79
2018-08-04T06:35:55.187Z,20.74
2018-08-04T06:38:22.096Z,20.88
2018-08-04T06:40:48.990Z,20.96
2018-08-04T06:43:15.920Z,21.04
2018-08-04T06:45:42.811Z,21.22
2018-08-04T06:48:09.731Z,21.43
2018-08-04T06:50:36.632Z,21.64
2018-08-04T06:53:03.539Z,21.59
2018-08-04T06:55:30.437Z,21.53
2018-08-04T06:57:57.342Z,21.48
2018-08-04T07:00:24.286Z,21.76
2018-08-04T07:02:51.176Z,21.83
2018-08-04T07:05:18.108Z,22.35
2018-08-04T07:07:45.827Z,22.03
2018-08-04T07:10:12.746Z,22.11
2018-08-04T07:12:39.648Z,22.25
2018-08-04T07:15:06.539Z,22.22
2018-08-04T07:17:33.429Z,22.52
2018-08-04T07:20:00.344Z,22.39
2018-08-04T07:22:27.238Z,22.81
2018-08-04T07:24:54.218Z,22.79
2018-08-04T07:27:21.165Z,22.98
2018-08-04T07:29:48.073Z,23.09
2018-08-04T07:32:14.970Z,23.19
2018-08-04T07:34:41.859Z,22.98
2018-08-04T07:37:08.740Z,22.97
2018-08-04T07:39:35.636Z,22.97
2018-08-04T07:42:02.534Z,23.63
2018-08-04T07:44:29.428Z,24.00
2018-08-04T07:46:56.324Z,23.91
2018-08-04T07:49:23.206Z,24.04
2018-08-04T07:51:50.097Z,23.88
2018-08-04T07:54:16.993Z,24.14
2018-08-04T07:56:43.873Z,24.40
2018-08-04T07:59:10.781Z,24.41
2018-08-04T08:04:18.092Z,24.23
2018-08-04T08:06:44.986Z,24.79
2018-08-04T08:09:11.898Z,24.46
2018-08-04T08:11:38.780Z,24.44
2018-08-04T08:14:05.688Z,24.57
2018-08-04T08:16:32.611Z,24.95
2018-08-04T08:18:59.549Z,24.93
2018-08-04T08:21:26.514Z,25.10
2018-08-04T08:23:53.476Z,24.98
2018-08-04T08:26:20.394Z,24.93
2018-08-04T08:28:47.281Z,25.14
2018-08-04T08:31:14.247Z,25.32
2018-08-04T08:33:41.113Z,24.94
2018-08-04T08:36:08.653Z,24.85
2018-08-04T08:38:35.551Z,24.93
2018-08-04T08:41:02.500Z,24.54
2018-08-04T08:43:29.428Z,25.59
2018-08-04T08:45:56.654Z,26.12
2018-08-04T08:48:24.013Z,26.64
2018-08-04T08:50:50.940Z,26.30
2018-08-04T08:53:17.867Z,25.80
2018-08-04T08:55:46.183Z,25.83
2018-08-04T08:58:13.069Z,26.08
2018-08-04T09:00:40.064Z,26.12
2018-08-04T09:03:06.961Z,26.17
2018-08-04T09:05:33.864Z,25.50
2018-08-04T09:08:02.447Z,25.86
2018-08-04T09:10:29.504Z,26.06
2018-08-04T09:12:56.630Z,26.52
2018-08-04T09:15:24.089Z,26.31
2018-08-04T09:17:51.018Z,26.28
2018-08-04T09:20:17.941Z,26.36
2018-08-04T09:22:44.863Z,26.10
2018-08-04T09:25:12.137Z,26.67
2018-08-04T09:27:39.351Z,26.93
2018-08-04T09:30:08.508Z,26.49
2018-08-04T09:32:35.663Z,26.26
2018-08-04T09:35:02.607Z,26.92
2018-08-04T09:37:29.984Z,26.65
2018-08-04T09:39:57.024Z,26.51
2018-08-04T09:42:23.961Z,26.57
2018-08-04T09:44:50.959Z,28.13
2018-08-04T09:47:17.889Z,27.38
2018-08-04T09:49:44.781Z,26.94
2018-08-04T09:52:11.709Z,27.28
2018-08-04T09:54:38.989Z,27.45
2018-08-04T09:57:06.122Z,27.20
2018-08-04T09:59:33.123Z,27.44
2018-08-04T10:02:05.958Z,27.48
2018-08-04T10:04:32.897Z,27.39
2018-08-04T10:06:59.849Z,27.31
2018-08-04T10:09:26.732Z,27.51
2018-08-04T10:11:53.927Z,27.15
2018-08-04T10:14:21.129Z,28.03
2018-08-04T10:16:48.064Z,28.13
2018-08-04T10:19:15.160Z,28.21
2018-08-04T10:21:42.067Z,28.77
2018-08-04T10:24:10.220Z,28.07
2018-08-04T10:26:37.139Z,28.16
2018-08-04T10:29:04.076Z,28.02
2018-08-04T10:31:30.998Z,28.03
2018-08-04T10:33:57.911Z,27.94
2018-08-04T10:36:24.823Z,27.74
2018-08-04T10:38:51.757Z,28.02
2018-08-04T10:41:18.678Z,27.73
2018-08-04T10:43:45.687Z,27.89
2018-08-04T10:46:12.619Z,28.07
2018-08-04T10:48:39.542Z,27.81
2018-08-04T10:51:06.474Z,28.41
2018-08-04T10:53:33.390Z,28.81
2018-08-04T10:56:00.313Z,27.97
2018-08-04T10:58:27.211Z,28.31
2018-08-04T11:00:54.141Z,28.81
2018-08-04T11:03:21.088Z,28.83
2018-08-04T11:05:47.989Z,28.80
2018-08-04T11:08:14.920Z,28.53
2018-08-04T11:10:41.832Z,27.69
2018-08-04T11:13:08.748Z,28.49
2018-08-04T11:15:35.675Z,27.87
2018-08-04T11:18:02.634Z,28.36
2018-08-04T11:20:29.481Z,28.41
2018-08-04T11:22:56.372Z,29.32
2018-08-04T11:25:23.256Z,29.13
2018-08-04T11:27:50.144Z,28.65
2018-08-04T11:30:17.036Z,29.71
2018-08-04T11:32:43.937Z,29.09
2018-08-04T11:35:10.935Z,28.49
2018-08-04T11:37:37.858Z,28.93
2018-08-04T11:40:04.828Z,28.79
2018-08-04T11:42:31.724Z,28.61
2018-08-04T11:44:58.622Z,29.27
2018-08-04T11:47:25.521Z,28.46
2018-08-04T11:49:52.404Z,29.11
2018-08-04T11:52:19.296Z,28.79
2018-08-04T11:54:46.192Z,29.21
2018-08-04T11:57:13.095Z,28.84
2018-08-04T11:59:39.978Z,28.59
2018-08-04T12:02:06.885Z,28.93
2018-08-04T12:04:33.829Z,28.46
2018-08-04T12:07:00.711Z,28.76
2018-08-04T12:09:27.638Z,28.54
2018-08-04T12:11:54.524Z,29.45
2018-08-04T12:14:21.423Z,29.40
2018-08-04T12:16:48.354Z,29.50
2018-08-04T12:19:15.263Z,29.03
2018-08-04T12:21:42.168Z,28.74
2018-08-04T12:24:09.080Z,28.90
2018-08-04T12:26:36.008Z,28.91
2018-08-04T12:29:02.991Z,28.91
2018-08-04T12:31:29.925Z,29.71
2018-08-04T12:33:56.823Z,29.64
2018-08-04T12:36:23.727Z,29.43
2018-08-04T12:38:50.662Z,29.09
2018-08-04T12:41:17.556Z,28.46
2018-08-04T12:43:44.499Z,28.11
2018-08-04T12:46:11.416Z,28.87
2018-08-04T12:48:38.332Z,28.61
2018-08-04T12:51:05.262Z,27.90
2018-08-04T12:53:32.194Z,27.72
2018-08-04T12:55:59.861Z,27.95
2018-08-04T12:58:26.834Z,27.76
2018-08-04T13:00:53.733Z,27.96
2018-08-04T13:03:20.649Z,28.12
2018-08-04T13:05:47.567Z,27.93
2018-08-04T13:08:14.707Z,27.92
2018-08-04T13:10:41.644Z,27.56
2018-08-04T13:13:08.538Z,28.06
2018-08-04T13:15:35.448Z,28.17
2018-08-04T13:18:02.368Z,28.87
2018-08-04T13:20:29.284Z,29.18
2018-08-04T13:22:56.216Z,29.28
2018-08-04T13:25:23.116Z,29.08
2018-08-04T13:27:50.033Z,28.52
2018-08-04T13:30:16.984Z,28.55
2018-08-04T13:32:43.900Z,28.73
2018-08-04T13:35:10.799Z,28.79
2018-08-04T13:37:37.707Z,29.45
2018-08-04T13:40:04.619Z,28.92
2018-08-04T13:42:31.535Z,28.87
2018-08-04T13:44:58.460Z,28.33
2018-08-04T13:47:25.381Z,28.66
2018-08-04T13:49:52.325Z,28.70
2018-08-04T13:52:19.250Z,28.42
2018-08-04T13:54:46.170Z,28.53
2018-08-04T13:57:13.096Z,28.21
2018-08-04T13:59:40.039Z,28.14
2018-08-04T14:02:06.957Z,28.28
2018-08-04T14:04:33.880Z,28.36
2018-08-04T14:07:00.788Z,27.47
2018-08-04T14:09:27.717Z,27.72
2018-08-04T14:11:54.657Z,27.77
2018-08-04T14:14:21.547Z,27.52
2018-08-04T14:16:48.460Z,27.36
2018-08-04T14:19:15.373Z,27.47
2018-08-04T14:21:42.300Z,27.41
2018-08-04T14:24:09.212Z,27.36
2018-08-04T14:26:36.123Z,27.48
2018-08-04T14:29:03.104Z,27.96
2018-08-04T14:31:30.017Z,28.13
2018-08-04T14:33:56.937Z,28.05
2018-08-04T14:36:23.868Z,27.57
2018-08-04T14:38:50.777Z,27.69
2018-08-04T14:41:17.696Z,27.57
2018-08-04T14:43:44.609Z,27.33
2018-08-04T14:46:11.871Z,27.37
2018-08-04T14:48:38.806Z,27.78
2018-08-04T14:51:05.719Z,27.83
2018-08-04T14:53:32.640Z,27.58
2018-08-04T14:55:59.580Z,27.64
2018-08-04T14:58:26.493Z,27.60
2018-08-04T15:00:53.412Z,27.62
2018-08-04T15:03:20.320Z,27.75
2018-08-04T15:05:47.233Z,27.75
2018-08-04T15:08:14.177Z,27.77
2018-08-04T15:10:41.083Z,27.52
2018-08-04T15:13:07.972Z,27.15
2018-08-04T15:15:34.940Z,27.30
2018-08-04T15:18:01.801Z,27.39
2018-08-04T15:20:28.729Z,27.24
2018-08-04T15:22:55.632Z,27.19
2018-08-04T15:25:22.525Z,27.10
2018-08-04T15:27:50.707Z,27.01
2018-08-04T15:30:18.329Z,27.37
2018-08-04T15:32:45.230Z,27.46
2018-08-04T15:35:12.947Z,27.16
2018-08-04T15:37:39.857Z,26.97
2018-08-04T15:40:07.013Z,26.97
2018-08-04T15:42:33.892Z,27.12
2018-08-04T15:45:00.792Z,26.90
2018-08-04T15:47:28.004Z,26.75
2018-08-04T15:49:54.910Z,26.29
2018-08-04T15:52:21.821Z,26.78
2018-08-04T15:54:48.775Z,26.79
2018-08-04T15:57:15.661Z,26.64
2018-08-04T15:59:42.553Z,26.66
2018-08-04T16:02:09.465Z,26.26
2018-08-04T16:04:36.417Z,26.09
2018-08-04T16:07:03.348Z,26.17
2018-08-04T16:09:30.254Z,26.01
2018-08-04T16:11:57.144Z,25.94
2018-08-04T16:14:24.057Z,26.15
2018-08-04T16:16:51.024Z,25.94
2018-08-04T16:19:17.896Z,25.90
2018-08-04T16:21:45.242Z,25.91
2018-08-04T16:24:12.203Z,25.86
2018-08-04T16:26:39.252Z,25.88
2018-08-04T16:29:06.165Z,25.63
2018-08-04T16:31:33.089Z,25.73
2018-08-04T16:33:59.987Z,25.79
2018-08-04T16:36:27.069Z,25.87
2018-08-04T16:38:53.976Z,26.16
2018-08-04T16:41:20.867Z,25.82
2018-08-04T16:43:47.772Z,25.77
2018-08-04T16:46:14.687Z,25.33
2018-08-04T16:48:41.588Z,25.38
2018-08-04T16:51:08.521Z,25.44
2018-08-04T16:53:35.467Z,25.35
2018-08-04T16:56:02.377Z,25.31
2018-08-04T16:58:29.274Z,25.07
2018-08-04T17:00:56.196Z,25.10
2018-08-04T17:03:23.081Z,24.99
2018-08-04T17:05:49.980Z,24.99
2018-08-04T17:08:17.034Z,24.99
2018-08-04T17:10:43.942Z,25.07
2018-08-04T17:13:10.836Z,24.87
2018-08-04T17:15:37.764Z,24.92
2018-08-04T17:18:04.679Z,24.69
2018-08-04T17:20:31.572Z,24.68
2018-08-04T17:22:58.457Z,24.62
2018-08-04T17:25:25.373Z,24.57
2018-08-04T17:27:52.339Z,24.46
2018-08-04T17:30:19.239Z,24.41
2018-08-04T17:32:46.116Z,24.43
2018-08-04T17:35:13.036Z,24.33
2018-08-04T17:37:39.918Z,24.37
2018-08-04T17:40:06.817Z,24.31
2018-08-04T17:42:33.696Z,24.30
2018-08-04T17:45:00.569Z,24.34
2018-08-04T17:47:27.456Z,24.28
2018-08-04T17:49:54.345Z,24.12
2018-08-04T17:52:21.276Z,23.87
2018-08-04T17:54:48.155Z,23.82
2018-08-04T17:57:15.117Z,23.84
2018-08-04T17:59:41.955Z,23.97
2018-08-04T18:02:08.894Z,24.04
2018-08-04T18:04:35.825Z,24.05
2018-08-04T18:07:02.741Z,24.01
2018-08-04T18:09:29.645Z,24.00
2018-08-04T18:11:56.588Z,23.91
2018-08-04T18:14:23.505Z,23.80
2018-08-04T18:16:50.413Z,23.71
2018-08-04T18:19:17.332Z,23.51
2018-08-04T18:21:44.261Z,23.42
2018-08-04T18:24:11.169Z,23.28
2018-08-04T18:26:38.076Z,23.14
2018-08-04T18:29:04.974Z,23.19
2018-08-04T18:31:31.884Z,23.14
2018-08-04T18:33:58.804Z,23.03
2018-08-04T18:36:25.745Z,22.96
2018-08-04T18:38:52.640Z,22.94
2018-08-04T18:41:19.565Z,22.88
2018-08-04T18:43:46.601Z,22.77
2018-08-04T18:46:13.520Z,22.68
2018-08-04T18:48:40.434Z,22.64
2018-08-04T18:51:07.452Z,22.56
2018-08-04T18:53:34.369Z,22.54
2018-08-04T18:56:01.284Z,22.48
2018-08-04T18:58:28.189Z,22.47
2018-08-04T19:03:21.587Z,22.35
2018-08-04T19:05:48.507Z,22.32
2018-08-04T19:08:15.425Z,22.24
2018-08-04T19:10:42.396Z,22.18
2018-08-04T19:13:09.304Z,22.10
2018-08-04T19:15:36.195Z,22.03
2018-08-04T19:18:03.124Z,21.95
2018-08-04T19:20:30.019Z,21.89
2018-08-04T19:22:56.920Z,21.88
2018-08-04T19:25:23.863Z,21.82
2018-08-04T19:27:50.780Z,21.82
2018-08-04T19:30:17.680Z,21.75
2018-08-04T19:32:44.600Z,21.73
2018-08-04T19:35:11.499Z,21.70
2018-08-04T19:37:38.399Z,21.64
2018-08-04T19:40:05.332Z,21.71
2018-08-04T19:42:32.237Z,21.66
2018-08-04T19:44:59.142Z,21.68
2018-08-04T19:47:26.113Z,21.58
2018-08-04T19:49:53.423Z,21.51
2018-08-04T19:52:20.321Z,21.53
2018-08-04T19:54:47.215Z,21.47
2018-08-04T19:57:14.120Z,21.46
2018-08-04T19:59:41.022Z,21.41
2018-08-04T20:02:07.929Z,21.39
2018-08-04T20:04:34.825Z,21.38
2018-08-04T20:07:01.729Z,21.28
2018-08-04T20:09:28.620Z,21.26
2018-08-04T20:11:55.516Z,21.29
2018-08-04T20:14:22.429Z,21.25
2018-08-04T20:16:49.333Z,21.19
2018-08-04T20:19:16.252Z,21.20
2018-08-04T20:21:43.143Z,21.15
2018-08-04T20:24:10.053Z,21.05
2018-08-04T20:26:36.955Z,21.03
2018-08-04T20:29:03.884Z,21.01
2018-08-04T20:31:30.768Z,20.92
2018-08-04T20:33:57.663Z,20.95
2018-08-04T20:36:24.581Z,20.91
2018-08-04T20:38:51.488Z,20.83
2018-08-04T20:41:18.814Z,20.81
2018-08-04T20:43:45.731Z,20.74
2018-08-04T20:46:12.620Z,20.72
2018-08-04T20:48:39.511Z,20.72
2018-08-04T20:51:06.441Z,20.63
2018-08-04T20:53:33.343Z,20.58
2018-08-04T20:56:00.240Z,20.67
2018-08-04T20:58:27.230Z,20.62
2018-08-04T21:01:05.849Z,20.72
2018-08-04T21:03:32.764Z,20.67
2018-08-04T21:05:59.650Z,20.60
2018-08-04T21:08:26.567Z,20.58
2018-08-04T21:10:53.474Z,20.53
2018-08-04T21:13:20.721Z,20.35
2018-08-04T21:15:47.835Z,20.39
2018-08-04T21:18:14.740Z,20.36
2018-08-04T21:20:41.648Z,20.33
2018-08-04T21:23:08.564Z,20.29
2018-08-04T21:25:35.445Z,20.32
2018-08-04T21:28:02.340Z,20.24
2018-08-04T21:30:29.262Z,20.21
2018-08-04T21:32:56.176Z,20.18
2018-08-04T21:35:23.079Z,20.16
2018-08-04T21:37:50.014Z,20.15
2018-08-04T21:40:16.909Z,20.07
2018-08-04T21:42:43.796Z,20.02
2018-08-04T21:45:10.708Z,20.02
2018-08-04T21:47:37.601Z,19.99
2018-08-04T21:50:04.541Z,19.95
2018-08-04T21:52:31.444Z,19.95
2018-08-04T21:54:58.388Z,19.91
2018-08-04T21:57:25.309Z,19.86
2018-08-04T21:59:52.229Z,19.90
2018-08-04T22:02:19.180Z,19.85
2018-08-04T22:04:46.108Z,19.76
2018-08-04T22:07:50.486Z,19.76
2018-08-04T22:10:17.431Z,19.76
2018-08-04T22:12:45.281Z,19.66
2018-08-04T22:15:13.388Z,19.64
2018-08-04T22:17:40.316Z,19.62
2018-08-04T22:20:09.020Z,19.64
2018-08-04T22:22:36.463Z,19.59
2018-08-04T22:25:04.106Z,19.61
2018-08-04T22:27:31.021Z,19.54
2018-08-04T22:29:57.984Z,19.49
2018-08-04T22:32:25.252Z,19.49
2018-08-04T22:34:52.177Z,19.43
2018-08-04T22:37:19.281Z,19.41
2018-08-04T22:39:46.269Z,19.36
2018-08-04T22:42:13.195Z,19.25
2018-08-04T22:44:51.725Z,19.27
2018-08-04T22:47:18.632Z,19.27
2018-08-04T22:49:45.549Z,19.21
2018-08-04T22:52:12.477Z,19.16
2018-08-04T22:54:39.387Z,19.11
2018-08-04T22:57:06.304Z,19.09
2018-08-04T22:59:33.222Z,19.05
2018-08-04T23:02:00.133Z,19.06
2018-08-04T23:04:27.057Z,18.97
2018-08-04T23:06:53.967Z,18.89
2018-08-04T23:09:21.725Z,18.88
2018-08-04T23:11:49.180Z,18.81
2018-08-04T23:14:16.096Z,18.81
2018-08-04T23:16:43.399Z,18.75
2018-08-04T23:19:10.320Z,18.70
2018-08-04T23:21:38.008Z,18.68
2018-08-04T23:24:05.266Z,18.68
2018-08-04T23:26:32.244Z,18.67
2018-08-04T23:28:59.172Z,18.62
2018-08-04T23:31:26.121Z,18.60
2018-08-04T23:33:53.407Z,18.60
2018-08-04T23:36:20.316Z,18.60
2018-08-04T23:38:47.220Z,18.46
2018-08-04T23:41:14.165Z,18.54
2018-08-04T23:43:41.200Z,18.48
2018-08-04T23:46:08.111Z,18.48
2018-08-04T23:48:35.018Z,18.47
2018-08-04T23:51:01.950Z,18.47
2018-08-04T23:53:28.864Z,18.49
2018-08-04T23:55:55.807Z,18.56
2018-08-04T23:58:22.727Z,18.51
